createdAt,value
2023-02-02T00:00:00.124Z,8.2
2023-02-02T00:05:00.127Z,9.1
2023-02-02T00:10:00.126Z,7.8
2023-02-02T00:15:00.160Z,7.2
2023-02-02T00:20:00.138Z,10.8
2023-02-02T00:25:00.156Z,9.2
2023-02-02T00:30:00.114Z,9.2
2023-02-02T00:35:00.127Z,17
2023-02-02T00:40:00.125Z,8.5
2023-02-02T00:45:00.167Z,12
2023-02-02T00:50:00.122Z,7.5
2023-02-02T00:55:00.139Z,7.7
2023-02-02T01:00:00.188Z,7.7
2023-02-02T01:05:00.142Z,16
2023-02-02T01:10:00.139Z,8.7
2023-02-02T01:15:00.154Z,8.1
2023-02-02T01:20:00.174Z,7.7
2023-02-02T01:25:00.162Z,4.7
2023-02-02T01:30:00.132Z,4.7
2023-02-02T01:35:00.124Z,3
2023-02-02T01:40:00.136Z,2.1
2023-02-02T01:45:00.101Z,2.1
2023-02-02T01:50:00.122Z,4.6
2023-02-02T01:55:00.104Z,2.2
2023-02-02T02:00:00.123Z,2.2
2023-02-02T02:05:00.111Z,1
2023-02-02T02:10:00.140Z,1.5
2023-02-02T02:15:00.113Z,0.3
2023-02-02T02:20:00.127Z,0.3
2023-02-02T02:25:00.153Z,0.6
2023-02-02T02:30:00.132Z,0.6
2023-02-02T02:35:00.123Z,0.3
2023-02-02T02:40:00.127Z,1.2
2023-02-02T02:45:00.118Z,0.4
2023-02-02T02:50:00.109Z,0.3
2023-02-02T02:55:00.134Z,0.4
2023-02-02T03:00:00.120Z,0.4
2023-02-02T03:05:00.136Z,0.5
2023-02-02T03:10:00.117Z,2
2023-02-02T03:15:00.122Z,1.9
2023-02-02T03:20:00.143Z,0.9
2023-02-02T03:25:00.137Z,2.8
2023-02-02T03:30:00.096Z,2.8
2023-02-02T03:35:00.097Z,1.2
2023-02-02T03:40:00.124Z,1.3
2023-02-02T03:45:00.085Z,2.7
2023-02-02T03:50:00.104Z,2.4
2023-02-02T03:55:00.130Z,3.6
2023-02-02T04:00:00.113Z,3.6
2023-02-02T04:05:00.101Z,5.1
2023-02-02T04:10:00.129Z,7.6
2023-02-02T04:15:00.112Z,8.6
2023-02-02T04:20:00.126Z,8.6
2023-02-02T04:25:00.344Z,10.1
2023-02-02T04:30:00.148Z,10.1
2023-02-02T04:35:00.106Z,10.4
2023-02-02T04:40:00.124Z,4.9
2023-02-02T04:45:00.127Z,5.3
2023-02-02T04:50:00.117Z,4.1
2023-02-02T04:55:00.121Z,3.5
2023-02-02T05:00:00.136Z,3.5
2023-02-02T05:05:00.097Z,3.1
2023-02-02T05:10:00.145Z,4.4
2023-02-02T05:15:00.104Z,4
2023-02-02T05:20:00.166Z,5.2
2023-02-02T05:25:00.132Z,6.8
2023-02-02T05:30:00.110Z,6.8
2023-02-02T05:35:00.095Z,5.2
2023-02-02T05:40:00.141Z,5.9
2023-02-02T05:45:00.122Z,3.9
2023-02-02T05:50:00.129Z,3
2023-02-02T05:55:00.140Z,4
2023-02-02T06:00:00.146Z,4
2023-02-02T06:05:00.113Z,1.9
2023-02-02T06:10:00.122Z,3.6
2023-02-02T06:15:00.114Z,4
2023-02-02T06:20:00.127Z,5.4
2023-02-02T06:25:00.144Z,5.6
2023-02-02T06:30:00.123Z,5.6
2023-02-02T06:35:00.136Z,4.5
2023-02-02T06:40:00.143Z,5
2023-02-02T06:45:00.102Z,6.6
2023-02-02T06:50:00.144Z,7.6
2023-02-02T06:55:00.140Z,6.8
2023-02-02T07:00:00.119Z,6.8
2023-02-02T07:05:00.143Z,6.1
2023-02-02T07:10:00.131Z,8.2
2023-02-02T07:15:00.108Z,5.8
2023-02-02T07:20:00.114Z,8
2023-02-02T07:25:00.159Z,6.6
2023-02-02T07:30:00.148Z,6.6
2023-02-02T07:35:00.124Z,5.7
2023-02-02T07:40:00.129Z,7.1
2023-02-02T07:45:00.127Z,6.6
2023-02-02T07:50:00.131Z,8.2
2023-02-02T07:55:13.812Z,5.2
2023-02-02T08:00:00.103Z,5.2
2023-02-02T08:05:00.126Z,6.5
2023-02-02T08:10:00.125Z,5
2023-02-02T08:15:00.123Z,4.9
2023-02-02T08:20:00.107Z,4.2
2023-02-02T08:25:00.133Z,7.6
2023-02-02T08:30:00.149Z,7.6
2023-02-02T08:35:00.131Z,7.4
2023-02-02T08:40:00.230Z,8.5
2023-02-02T08:46:00.656Z,11.2
2023-02-02T08:50:00.116Z,8.3
2023-02-02T08:55:00.120Z,10.8
2023-02-02T09:00:00.142Z,10.8
2023-02-02T09:05:00.109Z,9.9
2023-02-02T09:10:00.146Z,7.4
2023-02-02T09:15:00.113Z,9.2
2023-02-02T09:20:00.137Z,9.8
2023-02-02T09:25:00.117Z,6.1
2023-02-02T09:30:00.138Z,6.1
2023-02-02T09:35:00.249Z,8.2
2023-02-02T09:40:00.135Z,7.6
2023-02-02T09:45:00.097Z,8.6
2023-02-02T09:50:00.118Z,5.7
2023-02-02T09:55:00.127Z,8.5
2023-02-02T10:00:00.127Z,8.5
2023-02-02T10:05:00.093Z,7.5
2023-02-02T10:10:00.168Z,8.2
2023-02-02T10:15:00.204Z,6.2
2023-02-02T10:20:00.150Z,9.7
2023-02-02T10:25:00.134Z,7.8
2023-02-02T10:30:00.220Z,7.8
2023-02-02T10:35:12.432Z,7.5
2023-02-02T10:40:00.219Z,10.8
2023-02-02T10:45:00.115Z,6.5
2023-02-02T10:50:00.204Z,5.3
2023-02-02T10:55:02.885Z,5.9
2023-02-02T11:00:00.112Z,5.9
2023-02-02T11:05:00.116Z,7.5
2023-02-02T11:10:00.135Z,5.5
2023-02-02T11:15:00.102Z,6.3
2023-02-02T11:20:00.111Z,5.4
2023-02-02T11:25:00.119Z,4.4
2023-02-02T11:30:00.085Z,4.4
2023-02-02T11:35:00.108Z,5
2023-02-02T11:40:00.151Z,3.2
2023-02-02T11:45:00.113Z,4.4
2023-02-02T11:50:00.127Z,4.8
2023-02-02T11:55:00.100Z,4.5
2023-02-02T12:00:00.124Z,4.5
2023-02-02T12:05:00.095Z,3.6
2023-02-02T12:10:00.126Z,4
2023-02-02T12:15:00.158Z,4.6
2023-02-02T12:20:00.118Z,4.4
2023-02-02T12:25:00.150Z,7.3
2023-02-02T12:30:00.172Z,7.3
2023-02-02T12:35:00.120Z,3.6
2023-02-02T12:40:00.126Z,3.4
2023-02-02T12:45:00.140Z,3.3
2023-02-02T12:50:00.125Z,4.4
2023-02-02T12:55:00.143Z,5.9
2023-02-02T13:00:00.136Z,5.9
2023-02-02T13:05:00.124Z,4.2
2023-02-02T13:10:00.103Z,4.2
2023-02-02T13:15:00.099Z,3.5
2023-02-02T13:20:00.112Z,4.3
2023-02-02T13:25:01.140Z,3.5
2023-02-02T13:30:00.138Z,3.5
2023-02-02T13:35:00.142Z,3
2023-02-02T13:40:00.143Z,5
2023-02-02T13:45:00.107Z,4
2023-02-02T13:50:00.113Z,4.1
2023-02-02T13:55:00.195Z,5.7
2023-02-02T14:00:00.137Z,5.7
2023-02-02T14:05:00.112Z,3.7
2023-02-02T14:10:00.145Z,4
2023-02-02T14:15:00.143Z,5.9
2023-02-02T14:20:00.148Z,4.7
2023-02-02T14:25:00.159Z,5.8
2023-02-02T14:30:00.125Z,5.8
2023-02-02T14:35:00.124Z,3.6
2023-02-02T14:40:00.138Z,3.9
2023-02-02T14:45:00.109Z,3.2
2023-02-02T14:50:00.123Z,6.8
2023-02-02T14:55:00.122Z,6.1
2023-02-02T15:00:01.533Z,6.1
2023-02-02T15:05:00.138Z,4.9
2023-02-02T15:10:00.148Z,3.8
2023-02-02T15:15:00.117Z,4.6
2023-02-02T15:20:00.104Z,6.6
2023-02-02T15:25:00.139Z,6.2
2023-02-02T15:30:00.108Z,6.2
2023-02-02T15:35:00.101Z,7.6
2023-02-02T15:40:00.137Z,6
2023-02-02T15:45:00.097Z,6.1
2023-02-02T15:50:00.148Z,5.6
2023-02-02T15:55:00.138Z,5.1
2023-02-02T16:00:00.170Z,5.1
2023-02-02T16:05:00.079Z,4.9
2023-02-02T16:10:00.099Z,6.7
2023-02-02T16:15:00.078Z,6.2
2023-02-02T16:20:00.090Z,8.4
2023-02-02T16:25:00.085Z,6.1
2023-02-02T16:30:00.084Z,6.1
2023-02-02T16:35:00.128Z,5.1
2023-02-02T16:40:00.124Z,5.3
2023-02-02T16:45:00.111Z,6
2023-02-02T16:50:00.140Z,6.3
2023-02-02T16:55:00.126Z,9.7
2023-02-02T17:00:00.128Z,9.7
2023-02-02T17:05:00.100Z,6.1
2023-02-02T17:10:00.127Z,5.4
2023-02-02T17:15:00.100Z,4.9
2023-02-02T17:20:00.111Z,5.5
2023-02-02T17:25:00.098Z,4.8
2023-02-02T17:30:00.104Z,4.8
2023-02-02T17:35:00.103Z,6
2023-02-02T17:40:00.108Z,7.2
2023-02-02T17:45:00.103Z,6.1
2023-02-02T17:50:00.097Z,8.4
2023-02-02T17:55:00.135Z,6.3
2023-02-02T18:00:00.115Z,6.3
2023-02-02T18:05:00.112Z,6.8
2023-02-02T18:10:00.141Z,6.8
2023-02-02T18:15:00.138Z,5.6
2023-02-02T18:20:00.134Z,5.8
2023-02-02T18:25:00.137Z,5.4
2023-02-02T18:30:00.143Z,5.4
2023-02-02T18:35:00.122Z,6.3
2023-02-02T18:40:00.126Z,6.6
2023-02-02T18:45:00.107Z,4.8
2023-02-02T18:50:00.129Z,5.5
2023-02-02T18:55:00.134Z,6.8
2023-02-02T19:00:00.121Z,6.8
2023-02-02T19:05:00.097Z,7.8
2023-02-02T19:10:00.127Z,6.3
2023-02-02T19:15:00.093Z,7
2023-02-02T19:20:00.110Z,4.5
2023-02-02T19:25:00.132Z,8.9
2023-02-02T19:30:00.139Z,8.9
2023-02-02T19:35:00.093Z,9.5
2023-02-02T19:40:00.131Z,9.1
2023-02-02T19:45:00.120Z,5.6
2023-02-02T19:50:00.146Z,6.6
2023-02-02T19:55:00.129Z,6.9
2023-02-02T20:00:00.114Z,6.9
2023-02-02T20:05:00.133Z,9.7
2023-02-02T20:10:00.113Z,7.2
2023-02-02T20:15:00.107Z,6.9
2023-02-02T20:20:00.124Z,6.3
2023-02-02T20:25:00.273Z,7.8
2023-02-02T20:30:00.162Z,7.8
2023-02-02T20:35:00.124Z,6.5
2023-02-02T20:40:00.115Z,5.6
2023-02-02T20:45:00.139Z,9
2023-02-02T20:50:00.151Z,4.7
2023-02-02T20:55:00.120Z,6.6
2023-02-02T21:00:00.132Z,6.6
2023-02-02T21:05:00.091Z,12.1
2023-02-02T21:10:00.119Z,7.2
2023-02-02T21:15:00.125Z,6.3
2023-02-02T21:20:00.117Z,7.6
2023-02-02T21:25:00.096Z,5
2023-02-02T21:30:00.113Z,5
2023-02-02T21:35:00.110Z,17
2023-02-02T21:40:00.145Z,8.1
2023-02-02T21:45:00.141Z,10.1
2023-02-02T21:50:00.138Z,8.8
2023-02-02T21:55:00.119Z,10
2023-02-02T22:00:00.105Z,10
2023-02-02T22:05:00.165Z,10
2023-02-02T22:10:00.152Z,9.9
2023-02-02T22:15:00.126Z,7.5
2023-02-02T22:20:00.140Z,9.2
2023-02-02T22:25:00.137Z,12.7
2023-02-02T22:30:00.303Z,12.7
2023-02-02T22:35:00.105Z,11
2023-02-02T22:40:00.824Z,6.7
2023-02-02T22:45:00.103Z,7.6
2023-02-02T22:50:00.178Z,12
2023-02-02T22:55:00.139Z,11.9
2023-02-02T23:00:00.118Z,11.9
2023-02-02T23:05:00.160Z,8.1
2023-02-02T23:10:00.117Z,7.9
2023-02-02T23:15:00.153Z,13.1
2023-02-02T23:20:00.119Z,11.3
2023-02-02T23:25:00.110Z,9.5
2023-02-02T23:30:00.155Z,9.5
2023-02-02T23:35:00.110Z,12
2023-02-02T23:40:00.140Z,12.4
2023-02-02T23:45:00.110Z,14.5
2023-02-02T23:50:00.131Z,12.5
2023-02-02T23:55:00.137Z,10.8
